Portada
METAR-TAF:

METAR-TAF

Aeroports :

Aeroport de Milà-Malpensa

Milà, Itàlia

latitud: 45-37N, longitud: 008-44E, altitud: 234 m

Observació

L'informe es va fer fa 29 minuts, a les 20:50 UTC
Vent 4 kt del Est
Temperatura 8°C
Humitat 87%
Pressió 1023 hPa
Visibilitat: 4000 m
boirina

METAR: LIMC 182050Z 10004KT 4000 BR NSC 08/06 Q1023 NOSIG

Hora: 22:19 (21:19 UTC)

Pronòstic

L'informe es va fer fa 4 hores i 19 minuts, a les 17:00 UTC
Pronòstic vàlid del 18 a les 18 UTC al 19 a les 24 UTC
Vent 5 kt amb direcció variable
Visibilitat: 8000 m
Temporalment
l' 18 a les 22 UTC al 19 a les 07 UTC
Visibilitat: 1800 m
boira en bancs

TAF: LIMC 181700Z 1818/1924 VRB05KT 8000 NSC TEMPO 1822/1907 1800 BCFG

Observacions i pronòstics meteorològics de més de 4000 aeroports (METAR i TAF).

Les estacions disponibles són els punts grocs i vermells al mapa.

Posi el ratolí al punt desitjat per veure el nom de l'estació.

Feu clic per veure les observacions i els pronòstics meteorològics.

Per canviar el mapa: feu clic els botons verds amb una creu de color negre per apropar; al botó verd amb un guió per allunyar la imatge; o en les fletxes verdes per a mapes adjacents.


METAR-TAF: